Time;durP1;ratioP1;P1;durP2;ratioP2;P2;SDS_P1;SDS_P2;PMS_P1;PMS_P2;Temp;Humidity;BMP_temperature;BMP_pressure;BME280_temperature;BME280_humidity;BME280_pressure;Samples;Min_cycle;Max_cycle;Signal;HPM_P1;HPM_P2
2022/08/27 00:00:49;;;;;;;60.17;49.92;;;24.50;56.00;;;;;;4921193;28;91289;-56
2022/08/27 00:03:15;;;;;;;61.05;50.20;;;24.40;56.30;;;;;;4929921;28;89755;-52
2022/08/27 00:05:42;;;;;;;60.25;50.00;;;24.40;56.30;;;;;;4913998;28;91450;-53
2022/08/27 00:08:11;;;;;;;61.33;49.88;;;24.40;56.30;;;;;;4920365;28;92174;-52
2022/08/27 00:10:37;;;;;;;60.08;49.92;;;24.40;56.20;;;;;;4908167;28;91767;-50
2022/08/27 00:13:03;;;;;;;59.90;50.05;;;24.30;56.20;;;;;;4909534;28;91544;-55
2022/08/27 00:15:29;;;;;;;60.13;49.92;;;24.30;56.30;;;;;;4913954;28;89467;-56
2022/08/27 00:17:55;;;;;;;60.17;50.03;;;24.30;56.30;;;;;;4920661;28;89947;-54
2022/08/27 00:20:24;;;;;;;60.15;49.95;;;24.30;56.30;;;;;;4924104;28;96012;-54
2022/08/27 00:22:51;;;;;;;60.17;50.00;;;24.30;56.30;;;;;;4920918;28;90834;-56
2022/08/27 00:25:17;;;;;;;59.38;49.75;;;24.30;56.40;;;;;;4914073;28;97134;-51
2022/08/27 00:27:43;;;;;;;60.58;49.85;;;24.30;56.30;;;;;;4916453;28;90084;-56
2022/08/27 00:30:13;;;;;;;60.45;49.92;;;24.30;56.30;;;;;;4918402;28;90445;-55
2022/08/27 00:32:40;;;;;;;59.27;49.60;;;24.30;56.30;;;;;;4919613;28;92545;-54
2022/08/27 00:35:06;;;;;;;59.92;49.80;;;24.30;56.20;;;;;;4911853;28;96050;-51
2022/08/27 00:37:33;;;;;;;60.00;49.97;;;24.30;56.40;;;;;;4910951;28;90413;-53
2022/08/27 00:39:58;;;;;;;60.15;50.15;;;24.30;56.30;;;;;;4925903;28;92809;-51
2022/08/27 00:42:25;;;;;;;60.55;49.92;;;24.30;56.30;;;;;;4909254;28;92557;-54
2022/08/27 00:44:51;;;;;;;59.88;49.85;;;24.30;56.30;;;;;;4919943;28;91585;-53
2022/08/27 00:47:23;;;;;;;60.05;49.80;;;24.30;56.30;;;;;;4913718;28;91906;-51
2022/08/27 00:49:55;;;;;;;59.95;49.92;;;24.40;56.40;;;;;;4921011;28;96228;-55
2022/08/27 00:52:23;;;;;;;60.05;49.95;;;24.30;56.20;;;;;;4909013;28;89904;-54
2022/08/27 00:54:52;;;;;;;60.05;49.88;;;24.40;56.30;;;;;;4919528;28;90680;-56
2022/08/27 00:57:18;;;;;;;59.85;49.83;;;24.40;56.40;;;;;;4919209;28;93181;-55
2022/08/27 00:59:44;;;;;;;59.45;49.90;;;24.30;56.30;;;;;;4932488;28;92654;-53
2022/08/27 01:02:19;;;;;;;61.10;49.70;;;24.30;56.30;;;;;;4928821;28;90800;-54
2022/08/27 01:05:07;;;;;;;60.10;49.75;;;24.30;56.30;;;;;;4918593;28;90648;-54
2022/08/27 01:07:36;;;;;;;60.08;49.83;;;24.40;56.30;;;;;;4919980;28;90364;-53
2022/08/27 01:10:06;;;;;;;60.45;50.05;;;24.30;56.40;;;;;;4915153;28;91326;-55
2022/08/27 01:12:33;;;;;;;60.92;49.95;;;24.30;56.40;;;;;;4918099;28;89901;-55
2022/08/27 01:15:01;;;;;;;60.17;49.95;;;24.30;56.30;;;;;;4913919;28;91252;-54
2022/08/27 01:17:27;;;;;;;61.78;50.15;;;24.20;56.30;;;;;;4923615;28;92367;-55
2022/08/27 01:19:57;;;;;;;59.75;49.85;;;24.20;56.50;;;;;;4922604;28;92350;-56
2022/08/27 01:22:42;;;;;;;60.28;49.97;;;24.20;56.40;;;;;;4913653;28;90437;-55
2022/08/27 01:25:12;;;;;;;59.42;49.80;;;24.20;56.50;;;;;;4915026;28;92051;-56
2022/08/27 01:27:39;;;;;;;59.97;49.55;;;24.20;56.40;;;;;;4925551;28;91938;-54
2022/08/27 01:30:07;;;;;;;59.55;49.72;;;24.30;56.40;;;;;;4923305;28;91999;-55
2022/08/27 01:32:34;;;;;;;60.78;49.80;;;24.20;56.40;;;;;;4921465;28;90272;-56
2022/08/27 01:35:00;;;;;;;59.88;49.85;;;24.20;56.50;;;;;;4914959;28;89953;-51
2022/08/27 01:37:27;;;;;;;59.80;49.88;;;24.20;56.40;;;;;;4919413;28;90820;-55
2022/08/27 01:39:55;;;;;;;59.58;49.90;;;24.30;56.30;;;;;;4919070;28;90344;-55
2022/08/27 01:42:29;;;;;;;62.10;49.75;;;24.20;56.50;;;;;;4938743;28;92076;-53
2022/08/27 01:45:05;;;;;;;59.67;49.85;;;24.20;56.60;;;;;;4927307;28;90427;-55
2022/08/27 01:47:31;;;;;;;59.78;49.80;;;24.20;56.70;;;;;;4923417;28;89837;-52
2022/08/27 01:49:58;;;;;;;59.65;49.83;;;24.20;56.70;;;;;;4925303;28;91629;-55
2022/08/27 01:52:27;;;;;;;59.28;49.83;;;24.20;56.70;;;;;;4913827;28;90920;-56
2022/08/27 01:54:53;;;;;;;59.83;49.75;;;24.10;56.60;;;;;;4924322;28;90259;-55
2022/08/27 01:57:20;;;;;;;60.88;49.75;;;24.10;56.70;;;;;;4916676;28;91966;-54
2022/08/27 01:59:46;;;;;;;59.67;49.95;;;24.20;56.80;;;;;;4907854;28;90174;-54
2022/08/27 02:02:15;;;;;;;59.65;49.83;;;24.10;56.80;;;;;;4919089;28;94744;-50
2022/08/27 02:04:41;;;;;;;59.70;49.83;;;24.10;56.70;;;;;;4915774;28;91228;-54
2022/08/27 02:07:07;;;;;;;62.17;50.05;;;24.10;56.70;;;;;;4913729;28;90382;-53
2022/08/27 02:09:34;;;;;;;59.28;49.85;;;24.10;56.60;;;;;;4915636;28;92067;-54
2022/08/27 02:12:00;;;;;;;58.85;49.78;;;24.10;56.70;;;;;;4911891;28;91958;-56
2022/08/27 02:14:27;;;;;;;59.20;49.65;;;24.10;56.70;;;;;;4916960;28;96936;-50
2022/08/27 02:16:53;;;;;;;58.85;49.47;;;24.10;56.80;;;;;;4917441;28;90755;-55
2022/08/27 02:19:20;;;;;;;59.10;49.75;;;24.10;56.80;;;;;;4925493;28;90149;-55
2022/08/27 02:21:46;;;;;;;60.10;49.78;;;24.10;56.80;;;;;;4913066;28;91206;-53
2022/08/27 02:24:12;;;;;;;59.05;49.58;;;24.10;56.90;;;;;;4910337;28;95657;-56
2022/08/27 02:26:38;;;;;;;59.20;49.58;;;24.00;57.00;;;;;;4905152;28;91294;-53
2022/08/27 02:29:04;;;;;;;60.90;49.55;;;24.00;57.00;;;;;;4914571;28;92027;-54
2022/08/27 02:31:30;;;;;;;59.25;49.47;;;24.00;57.00;;;;;;4914578;28;89626;-52
2022/08/27 02:33:56;;;;;;;59.35;49.45;;;24.00;57.00;;;;;;4916791;28;92508;-49
2022/08/27 02:36:23;;;;;;;59.40;49.35;;;24.00;57.10;;;;;;4916623;28;93641;-52
2022/08/27 02:38:49;;;;;;;59.15;49.53;;;23.90;57.20;;;;;;4914235;28;91857;-52
2022/08/27 02:41:16;;;;;;;59.03;49.58;;;23.90;57.20;;;;;;4919149;28;90935;-55
2022/08/27 02:43:43;;;;;;;58.83;49.50;;;24.00;57.20;;;;;;4915030;28;92780;-55
2022/08/27 02:46:10;;;;;;;58.67;49.47;;;23.90;57.70;;;;;;4918304;28;90522;-51
2022/08/27 02:48:39;;;;;;;59.28;49.75;;;24.00;57.30;;;;;;4923468;28;90302;-53
2022/08/27 02:51:06;;;;;;;58.70;49.28;;;23.90;57.30;;;;;;4915879;28;90913;-52
2022/08/27 02:53:34;;;;;;;59.13;49.63;;;23.90;57.30;;;;;;4917402;28;90393;-54
2022/08/27 02:55:59;;;;;;;59.50;49.95;;;23.90;57.20;;;;;;4899431;28;94604;-56
2022/08/27 02:58:25;;;;;;;59.60;49.80;;;23.90;57.20;;;;;;4913677;28;90765;-50
2022/08/27 03:00:51;;;;;;;58.65;49.58;;;24.00;57.20;;;;;;4913431;28;90862;-54
2022/08/27 03:03:17;;;;;;;59.00;49.65;;;23.90;57.20;;;;;;4909132;28;95136;-54
2022/08/27 03:05:43;;;;;;;58.97;49.55;;;23.90;57.40;;;;;;4911958;28;92256;-56
2022/08/27 03:08:08;;;;;;;59.92;49.85;;;23.90;57.20;;;;;;4907493;28;91111;-53
2022/08/27 03:10:34;;;;;;;58.47;49.40;;;23.90;57.20;;;;;;4910808;28;90439;-51
2022/08/27 03:13:00;;;;;;;59.08;49.72;;;23.90;57.20;;;;;;4906933;28;91025;-52
2022/08/27 03:15:26;;;;;;;58.95;49.53;;;23.90;57.30;;;;;;4913109;28;90586;-53
2022/08/27 03:20:41;;;;;;;58.90;49.58;;;23.90;58.00;;;;;;4917086;28;90206;-53
2022/08/27 03:23:08;;;;;;;59.78;49.65;;;23.80;57.50;;;;;;4912052;28;90261;-54
2022/08/27 03:25:35;;;;;;;58.33;49.20;;;23.80;57.50;;;;;;4923532;28;90003;-55
2022/08/27 03:28:01;;;;;;;59.35;49.45;;;23.80;57.40;;;;;;4926542;28;91706;-53
2022/08/27 03:30:26;;;;;;;59.60;49.80;;;23.80;57.60;;;;;;4931363;28;90452;-53
2022/08/27 03:32:52;;;;;;;60.05;49.47;;;23.70;57.60;;;;;;4933343;28;93983;-53
2022/08/27 03:35:19;;;;;;;59.53;49.50;;;23.70;57.70;;;;;;4925205;28;89990;-54
2022/08/27 03:37:45;;;;;;;58.97;49.72;;;23.70;57.70;;;;;;4912023;28;91042;-53
2022/08/27 03:40:12;;;;;;;58.88;49.58;;;23.70;57.70;;;;;;4920343;28;90716;-53
2022/08/27 03:42:41;;;;;;;59.30;49.50;;;23.70;57.60;;;;;;4925943;28;91851;-51
2022/08/27 03:45:07;;;;;;;59.65;49.90;;;23.80;57.60;;;;;;4923780;28;94028;-52
2022/08/27 03:47:34;;;;;;;59.60;50.05;;;23.70;57.60;;;;;;4913118;28;90143;-53
2022/08/27 03:49:59;;;;;;;59.20;49.55;;;23.70;57.50;;;;;;4928645;28;91051;-55
2022/08/27 03:52:26;;;;;;;58.70;49.50;;;23.70;57.70;;;;;;4915156;28;91823;-49
2022/08/27 03:54:51;;;;;;;58.72;49.55;;;23.70;57.70;;;;;;4921574;28;92728;-53
2022/08/27 03:57:17;;;;;;;58.95;49.45;;;23.60;57.80;;;;;;4918803;28;91511;-52
2022/08/27 03:59:43;;;;;;;58.78;49.60;;;23.60;58.40;;;;;;4920708;28;89872;-53
2022/08/27 04:02:09;;;;;;;58.92;49.88;;;23.60;57.90;;;;;;4923330;28;90464;-53
2022/08/27 04:04:34;;;;;;;58.80;49.45;;;23.60;57.90;;;;;;4925246;28;89835;-51
2022/08/27 04:07:00;;;;;;;59.83;49.75;;;23.60;57.90;;;;;;4916558;28;90922;-53
2022/08/27 04:09:26;;;;;;;59.28;49.58;;;23.60;58.00;;;;;;4923442;28;91764;-53
2022/08/27 04:11:52;;;;;;;59.15;49.55;;;23.60;58.00;;;;;;4914587;28;91488;-54
2022/08/27 04:14:18;;;;;;;58.85;49.42;;;23.50;57.90;;;;;;4913335;28;89890;-55
2022/08/27 04:16:43;;;;;;;59.67;49.63;;;23.50;58.00;;;;;;4916302;28;90922;-55
2022/08/27 04:19:11;;;;;;;59.72;49.67;;;23.60;57.90;;;;;;4912311;28;91934;-51
2022/08/27 04:21:37;;;;;;;59.63;49.58;;;23.50;58.00;;;;;;4918085;28;92133;-51
2022/08/27 04:24:03;;;;;;;58.05;49.38;;;23.50;58.10;;;;;;4933369;28;95737;-50
2022/08/27 04:26:29;;;;;;;59.08;49.65;;;23.40;58.10;;;;;;4917807;28;91544;-50
2022/08/27 04:28:56;;;;;;;58.70;49.50;;;23.50;58.20;;;;;;4923717;28;94770;-53
2022/08/27 04:31:22;;;;;;;59.65;49.72;;;23.40;58.30;;;;;;4921069;28;93933;-53
2022/08/27 04:33:48;;;;;;;59.22;49.63;;;23.40;58.30;;;;;;4917006;28;89541;-53
2022/08/27 04:36:16;;;;;;;58.95;49.75;;;23.40;58.30;;;;;;4919957;28;94165;-54
2022/08/27 04:38:42;;;;;;;59.28;49.60;;;23.40;58.30;;;;;;4918050;28;90550;-54
2022/08/27 04:41:18;;;;;;;58.55;49.70;;;23.40;58.40;;;;;;4929210;28;90936;-50
2022/08/27 04:43:51;;;;;;;58.70;49.35;;;23.40;58.30;;;;;;4930180;28;89618;-52
2022/08/27 04:46:24;;;;;;;58.75;49.72;;;23.40;58.20;;;;;;4919782;28;94558;-51
2022/08/27 04:48:50;;;;;;;59.63;49.92;;;23.40;58.10;;;;;;4915326;28;89989;-52
2022/08/27 04:51:16;;;;;;;58.80;49.83;;;23.40;58.30;;;;;;4924351;28;96649;-54
2022/08/27 04:53:42;;;;;;;58.50;49.80;;;23.40;58.40;;;;;;4917036;28;91970;-49
2022/08/27 04:56:13;;;;;;;58.78;49.47;;;23.40;58.40;;;;;;4924514;28;90568;-53
2022/08/27 04:58:39;;;;;;;59.78;49.65;;;23.30;58.40;;;;;;4920512;28;90426;-53
2022/08/27 05:01:06;;;;;;;58.55;49.53;;;23.30;58.40;;;;;;4928084;28;95636;-53
2022/08/27 05:03:32;;;;;;;58.45;49.50;;;23.30;58.40;;;;;;4919154;28;90560;-55
2022/08/27 05:06:01;;;;;;;59.35;49.95;;;23.30;58.40;;;;;;4915113;28;94017;-55
2022/08/27 05:08:27;;;;;;;59.00;49.63;;;23.30;58.50;;;;;;4923318;28;93268;-54
2022/08/27 05:10:53;;;;;;;58.33;49.70;;;23.30;58.40;;;;;;4922137;28;90941;-54
2022/08/27 05:13:21;;;;;;;58.65;49.50;;;23.40;58.30;;;;;;4923976;28;90365;-54
2022/08/27 05:15:47;;;;;;;58.55;49.55;;;23.40;58.20;;;;;;4922630;28;90908;-51
2022/08/27 05:18:15;;;;;;;57.90;49.42;;;23.30;58.30;;;;;;4922296;28;93197;-50
2022/08/27 05:20:48;;;;;;;59.05;49.65;;;23.30;58.30;;;;;;4917703;28;89687;-54
2022/08/27 05:23:16;;;;;;;58.97;49.63;;;23.30;58.30;;;;;;4921227;28;89202;-53
2022/08/27 05:25:44;;;;;;;58.55;49.55;;;23.30;58.50;;;;;;4928448;28;91279;-55
2022/08/27 05:28:11;;;;;;;59.38;49.63;;;23.30;58.50;;;;;;4928843;28;91812;-50
2022/08/27 05:30:39;;;;;;;59.67;49.95;;;23.30;58.40;;;;;;4917628;28;90963;-54
2022/08/27 05:33:06;;;;;;;58.50;49.55;;;23.20;58.40;;;;;;4918797;28;92084;-50
2022/08/27 05:35:32;;;;;;;58.63;49.63;;;23.20;58.50;;;;;;4930881;28;91812;-50
2022/08/27 05:37:59;;;;;;;59.75;49.88;;;23.20;58.60;;;;;;4917315;28;90889;-54
2022/08/27 05:40:25;;;;;;;58.25;49.45;;;23.20;58.60;;;;;;4923716;28;91515;-50
2022/08/27 05:42:50;;;;;;;59.35;49.65;;;23.20;58.70;;;;;;4917568;28;91425;-54
2022/08/27 05:45:16;;;;;;;58.50;49.63;;;23.20;58.50;;;;;;4925656;28;90687;-52
2022/08/27 05:47:42;;;;;;;59.42;49.72;;;23.20;58.50;;;;;;4925118;28;91505;-50
2022/08/27 05:50:07;;;;;;;58.90;49.65;;;23.30;58.50;;;;;;4924218;28;90672;-50
2022/08/27 05:52:35;;;;;;;58.78;49.42;;;23.20;58.50;;;;;;4915072;28;90649;-52
2022/08/27 05:55:01;;;;;;;58.85;49.67;;;23.20;58.60;;;;;;4918211;28;93157;-51
2022/08/27 05:57:27;;;;;;;58.53;49.67;;;23.20;58.50;;;;;;4919547;28;94556;-52
2022/08/27 06:02:38;;;;;;;59.05;49.55;;;23.30;58.50;;;;;;4919513;28;91887;-54
2022/08/27 06:05:04;;;;;;;59.00;49.58;;;23.20;58.50;;;;;;4926383;28;92263;-55
2022/08/27 06:07:31;;;;;;;58.83;49.58;;;23.20;58.50;;;;;;4915139;28;94430;-51
2022/08/27 06:09:57;;;;;;;58.50;49.67;;;23.20;58.40;;;;;;4922065;28;91880;-53
2022/08/27 06:12:24;;;;;;;60.28;49.70;;;23.20;58.70;;;;;;4918001;28;89270;-50
2022/08/27 06:14:50;;;;;;;59.15;49.75;;;23.20;58.60;;;;;;4917821;28;91914;-55
2022/08/27 06:17:16;;;;;;;59.42;49.97;;;23.20;58.60;;;;;;4919480;28;92517;-54
2022/08/27 06:19:42;;;;;;;58.25;49.67;;;23.20;58.50;;;;;;4913170;28;90941;-53
2022/08/27 06:22:08;;;;;;;58.35;49.42;;;23.20;58.50;;;;;;4914959;28;91617;-50
2022/08/27 06:24:35;;;;;;;59.05;49.67;;;23.30;58.60;;;;;;4919318;28;95282;-55
2022/08/27 06:27:00;;;;;;;58.60;49.58;;;23.30;58.40;;;;;;4918692;28;92777;-54
2022/08/27 06:29:26;;;;;;;58.88;49.63;;;23.30;58.50;;;;;;4919750;28;90439;-52
2022/08/27 06:31:53;;;;;;;58.50;49.67;;;23.30;58.50;;;;;;4917677;28;90560;-54
2022/08/27 06:34:19;;;;;;;58.60;49.47;;;23.30;58.40;;;;;;4922802;28;91371;-55
2022/08/27 06:36:45;;;;;;;58.95;49.72;;;23.30;58.40;;;;;;4920311;28;89590;-54
2022/08/27 06:39:12;;;;;;;59.28;49.53;;;23.30;58.50;;;;;;4920115;28;90201;-52
2022/08/27 06:41:39;;;;;;;59.97;49.72;;;23.30;58.60;;;;;;4908823;28;91079;-52
2022/08/27 06:44:05;;;;;;;59.10;49.72;;;23.30;58.40;;;;;;4916272;28;96332;-55
2022/08/27 06:46:32;;;;;;;58.78;49.63;;;23.30;58.40;;;;;;4916216;28;90447;-54
2022/08/27 06:48:59;;;;;;;58.75;49.47;;;23.30;58.40;;;;;;4917388;28;90094;-54
2022/08/27 06:51:36;;;;;;;58.50;49.58;;;23.30;58.30;;;;;;4913561;28;91102;-50
2022/08/27 06:54:06;;;;;;;58.85;49.72;;;23.40;58.30;;;;;;4921468;28;91317;-49
2022/08/27 06:56:32;;;;;;;59.28;49.70;;;23.40;58.30;;;;;;4921254;28;95918;-50
2022/08/27 06:59:00;;;;;;;59.38;49.78;;;23.40;58.40;;;;;;4916320;28;89758;-50
2022/08/27 07:01:36;;;;;;;60.35;49.90;;;23.40;58.10;;;;;;4910597;28;90265;-52
2022/08/27 07:04:06;;;;;;;59.17;49.75;;;23.40;58.30;;;;;;4898343;28;92292;-53
2022/08/27 07:06:33;;;;;;;60.47;49.95;;;23.40;58.20;;;;;;4916831;28;91237;-52
2022/08/27 07:08:59;;;;;;;61.00;49.92;;;23.50;58.10;;;;;;4910865;28;90886;-52
2022/08/27 07:11:27;;;;;;;59.33;49.83;;;23.50;57.90;;;;;;4923741;28;89811;-52
2022/08/27 07:13:53;;;;;;;59.13;49.70;;;23.50;58.10;;;;;;4918483;28;91217;-49
2022/08/27 07:16:22;;;;;;;59.90;49.97;;;23.50;58.10;;;;;;4924911;28;89768;-50
2022/08/27 07:18:52;;;;;;;59.83;49.97;;;23.50;58.00;;;;;;4921865;28;91155;-49
2022/08/27 07:21:19;;;;;;;59.35;49.65;;;23.60;58.00;;;;;;4913667;28;91509;-51
2022/08/27 07:23:46;;;;;;;59.47;49.90;;;23.60;57.80;;;;;;4914144;28;91163;-51
2022/08/27 07:26:13;;;;;;;60.10;50.00;;;23.70;57.70;;;;;;4919637;28;90461;-53
2022/08/27 07:28:41;;;;;;;59.03;49.80;;;23.70;57.80;;;;;;4923920;28;91925;-53
2022/08/27 07:31:09;;;;;;;59.55;50.08;;;23.80;57.70;;;;;;4916842;28;89747;-51
2022/08/27 07:33:36;;;;;;;60.97;50.05;;;23.80;57.60;;;;;;4924825;28;90504;-51
2022/08/27 07:36:06;;;;;;;59.45;50.05;;;23.80;57.20;;;;;;4917345;28;90891;-52
2022/08/27 07:38:32;;;;;;;60.33;50.15;;;23.80;57.50;;;;;;4909758;28;91531;-50
2022/08/27 07:40:58;;;;;;;59.63;50.03;;;23.90;57.60;;;;;;4922843;28;89866;-53
2022/08/27 07:46:09;;;;;;;59.50;50.05;;;23.90;57.10;;;;;;4929913;28;89960;-53
2022/08/27 07:48:34;;;;;;;61.28;50.33;;;24.00;57.00;;;;;;4929246;28;95143;-50
2022/08/27 07:51:03;;;;;;;61.63;50.10;;;23.90;57.20;;;;;;4921489;28;93723;-53
2022/08/27 07:53:32;;;;;;;60.25;50.33;;;23.90;57.10;;;;;;4919083;28;96405;-55
2022/08/27 07:56:06;;;;;;;60.28;50.33;;;24.00;57.00;;;;;;4916953;28;90846;-51
2022/08/27 07:58:33;;;;;;;60.50;50.45;;;24.00;57.00;;;;;;4917751;28;92051;-53
2022/08/27 08:00:59;;;;;;;60.38;50.45;;;24.00;57.00;;;;;;4910277;28;98668;-54
2022/08/27 08:03:25;;;;;;;59.85;50.10;;;24.00;57.00;;;;;;4926976;28;90397;-52
2022/08/27 08:05:52;;;;;;;60.83;50.22;;;24.00;56.90;;;;;;4915225;28;92754;-50
2022/08/27 08:08:22;;;;;;;61.70;50.47;;;24.00;56.90;;;;;;4916285;28;90229;-51
2022/08/27 08:10:48;;;;;;;60.75;50.40;;;24.00;56.80;;;;;;4909666;28;98000;-53
2022/08/27 08:13:17;;;;;;;61.30;50.40;;;24.00;56.70;;;;;;4911159;28;89947;-54
2022/08/27 08:15:45;;;;;;;61.15;50.45;;;24.10;56.70;;;;;;4928965;28;90338;-54
2022/08/27 08:18:12;;;;;;;61.50;50.67;;;24.00;56.70;;;;;;4925757;28;91394;-53
2022/08/27 08:20:38;;;;;;;61.60;50.22;;;24.00;56.40;;;;;;4920796;28;90919;-51
2022/08/27 08:23:05;;;;;;;65.88;50.70;;;24.10;56.50;;;;;;4910537;28;93440;-53
2022/08/27 08:25:30;;;;;;;62.50;50.13;;;24.20;56.40;;;;;;4924421;28;91136;-57
2022/08/27 08:27:58;;;;;;;65.85;50.33;;;24.20;56.50;;;;;;4921245;28;90310;-55
2022/08/27 08:30:25;;;;;;;61.90;50.58;;;24.10;56.40;;;;;;4920807;28;90071;-53
2022/08/27 08:32:50;;;;;;;63.08;50.58;;;24.20;56.60;;;;;;4914187;28;90465;-52
2022/08/27 08:35:16;;;;;;;62.80;50.30;;;24.20;56.30;;;;;;4914463;28;90810;-51
2022/08/27 08:37:43;;;;;;;63.55;50.20;;;24.20;56.30;;;;;;4914145;28;90269;-49
2022/08/27 08:40:10;;;;;;;61.83;50.28;;;24.20;56.30;;;;;;4919302;28;90188;-54
2022/08/27 08:42:45;;;;;;;61.75;50.15;;;24.20;56.10;;;;;;4930124;28;90155;-52
2022/08/27 08:45:15;;;;;;;61.10;50.55;;;24.20;56.10;;;;;;4921791;28;92392;-52
2022/08/27 08:47:44;;;;;;;62.80;50.33;;;24.20;56.10;;;;;;4915501;28;90708;-54
2022/08/27 08:50:16;;;;;;;62.00;50.35;;;24.20;56.00;;;;;;4912948;28;91258;-53
2022/08/27 08:52:59;;;;;;;60.85;50.35;;;24.20;55.90;;;;;;4903387;28;90400;-51
2022/08/27 08:55:25;;;;;;;61.30;50.40;;;24.20;55.80;;;;;;4921440;28;90135;-53
2022/08/27 08:58:21;;;;;;;61.72;50.25;;;24.20;55.80;;;;;;4914005;28;91169;-51
2022/08/27 09:00:59;;;;;;;62.90;50.28;;;24.20;55.70;;;;;;4921192;28;90398;-53
2022/08/27 09:03:26;;;;;;;62.42;50.55;;;24.30;55.70;;;;;;4921652;28;92079;-55
2022/08/27 09:06:01;;;;;;;61.72;50.28;;;24.30;55.60;;;;;;4906746;28;91808;-54
2022/08/27 09:08:35;;;;;;;61.47;50.47;;;24.30;55.50;;;;;;4918366;28;90767;-54
2022/08/27 09:11:07;;;;;;;61.33;50.45;;;24.30;55.40;;;;;;4908706;28;91014;-55
2022/08/27 09:13:52;;;;;;;62.45;50.55;;;24.40;55.40;;;;;;4919765;28;92331;-51
2022/08/27 09:16:23;;;;;;;61.80;50.53;;;24.40;55.20;;;;;;4912857;28;92566;-55
2022/08/27 09:18:48;;;;;;;;;;;24.40;55.20;;;;;;4924603;28;90023;-52
2022/08/27 09:21:48;;;;;;;62.15;50.30;;;24.40;55.20;;;;;;4921121;28;89653;-55
2022/08/27 09:24:25;;;;;;;61.70;50.83;;;24.40;55.00;;;;;;4925899;28;93470;-53
2022/08/27 09:26:51;;;;;;;60.85;50.35;;;24.50;54.90;;;;;;4924966;28;90562;-54
2022/08/27 09:29:18;;;;;;;62.60;50.50;;;24.60;54.80;;;;;;4912452;28;91084;-53
2022/08/27 09:31:56;;;;;;;60.75;50.55;;;24.60;54.60;;;;;;4932142;28;88867;-50
2022/08/27 09:34:26;;;;;;;61.72;50.85;;;24.60;54.50;;;;;;4920901;28;91224;-55
2022/08/27 09:37:19;;;;;;;61.65;50.50;;;24.70;54.50;;;;;;4916881;28;89918;-54
2022/08/27 09:39:47;;;;;;;61.35;50.63;;;24.70;54.40;;;;;;4916185;28;95537;-53
2022/08/27 09:42:37;;;;;;;62.13;50.50;;;24.70;54.20;;;;;;4917747;28;90002;-54
2022/08/27 09:45:19;;;;;;;61.03;50.25;;;24.70;54.20;;;;;;4909691;28;94752;-53
2022/08/27 09:47:47;;;;;;;63.17;50.38;;;24.70;54.10;;;;;;4921096;28;91643;-54
2022/08/27 09:50:22;;;;;;;62.65;50.55;;;24.80;54.00;;;;;;4923811;28;92044;-53
2022/08/27 09:52:49;;;;;;;61.75;50.45;;;24.80;53.90;;;;;;4918635;28;96413;-54
2022/08/27 09:55:43;;;;;;;61.55;50.83;;;24.90;53.90;;;;;;4918005;28;91568;-52
2022/08/27 09:58:30;;;;;;;62.03;50.45;;;24.80;53.70;;;;;;4913762;28;93941;-52
2022/08/27 10:01:06;;;;;;;61.83;50.92;;;24.90;53.70;;;;;;4907474;28;95438;-52
2022/08/27 10:03:32;;;;;;;62.20;50.92;;;24.90;54.30;;;;;;4914784;28;96243;-55
2022/08/27 10:05:59;;;;;;;61.83;50.67;;;24.90;53.60;;;;;;4911367;28;91116;-50
2022/08/27 10:08:42;;;;;;;61.83;50.83;;;24.90;53.60;;;;;;4913426;28;90229;-56
2022/08/27 10:11:24;;;;;;;63.05;50.78;;;24.90;53.60;;;;;;4914720;28;96659;-52
2022/08/27 10:14:06;;;;;;;62.00;50.85;;;25.00;53.50;;;;;;4921958;28;91957;-51
2022/08/27 10:16:45;;;;;;;61.55;50.72;;;24.90;53.50;;;;;;4919118;28;90463;-56
2022/08/27 10:19:26;;;;;;;61.83;50.83;;;25.00;53.50;;;;;;4913248;28;92289;-55
2022/08/27 10:21:58;;;;;;;62.80;50.72;;;25.00;53.40;;;;;;4927320;28;90414;-56
2022/08/27 10:24:35;;;;;;;62.22;50.90;;;25.00;53.40;;;;;;4928072;28;90174;-54
2022/08/27 10:27:19;;;;;;;62.22;50.95;;;25.00;53.40;;;;;;4912901;28;92422;-52
2022/08/27 10:30:00;;;;;;;62.30;50.90;;;25.10;53.40;;;;;;4908715;28;92131;-54
2022/08/27 10:32:41;;;;;;;62.08;51.20;;;25.10;52.70;;;;;;4906703;28;92860;-51
2022/08/27 10:35:24;;;;;;;63.33;51.03;;;25.10;52.80;;;;;;4907252;28;91246;-51
2022/08/27 10:37:52;;;;;;;63.17;51.05;;;25.10;52.80;;;;;;4927190;28;92546;-54
2022/08/27 10:40:27;;;;;;;63.70;51.42;;;25.10;52.80;;;;;;4929375;28;90619;-55
2022/08/27 10:43:32;;;;;;;63.38;51.15;;;25.10;52.70;;;;;;4912132;28;95922;-50
2022/08/27 10:46:13;;;;;;;63.83;50.95;;;25.10;52.60;;;;;;4921035;28;89834;-53
2022/08/27 10:49:03;;;;;;;64.40;50.80;;;25.10;52.60;;;;;;4916736;28;90568;-50
2022/08/27 10:51:43;;;;;;;62.60;51.03;;;25.20;52.60;;;;;;4933593;28;92355;-51
2022/08/27 10:54:35;;;;;;;62.17;51.13;;;25.20;52.40;;;;;;4925483;28;89869;-53
2022/08/27 10:57:23;;;;;;;61.78;50.78;;;25.20;52.50;;;;;;4915607;28;90701;-51
2022/08/27 11:00:08;;;;;;;63.25;51.20;;;25.20;52.40;;;;;;4924614;28;92785;-53
2022/08/27 11:02:50;;;;;;;63.75;51.08;;;25.10;52.30;;;;;;4912400;28;90898;-51
2022/08/27 11:05:19;;;;;;;62.65;50.88;;;25.20;52.30;;;;;;4930703;28;89893;-51
2022/08/27 11:08:08;;;;;;;63.17;51.33;;;25.20;52.30;;;;;;4927995;28;90635;-53
2022/08/27 11:10:56;;;;;;;62.45;51.20;;;25.20;52.30;;;;;;4926279;28;94946;-53
2022/08/27 11:13:38;;;;;;;63.30;51.33;;;25.20;52.20;;;;;;4941743;28;90698;-54
2022/08/27 11:16:17;;;;;;;62.60;51.05;;;25.20;52.20;;;;;;4922497;28;90241;-51
2022/08/27 11:18:58;;;;;;;62.83;50.95;;;25.20;52.20;;;;;;4918396;28;91903;-52
2022/08/27 11:21:36;;;;;;;61.85;50.85;;;25.30;52.30;;;;;;4909178;28;94587;-55
2022/08/27 11:24:07;;;;;;;62.97;51.13;;;25.20;52.30;;;;;;4906134;28;90797;-52
2022/08/27 11:26:37;;;;;;;63.58;51.35;;;25.30;52.40;;;;;;4912149;28;91362;-54
2022/08/27 11:29:15;;;;;;;63.03;51.35;;;25.30;52.40;;;;;;4910817;28;91841;-53
2022/08/27 11:32:10;;;;;;;63.55;51.22;;;25.30;53.10;;;;;;4923346;28;91533;-51
2022/08/27 11:34:46;;;;;;;62.25;51.08;;;25.30;52.50;;;;;;4910304;28;94001;-52
2022/08/27 11:37:37;;;;;;;63.25;51.25;;;25.30;52.50;;;;;;4918074;28;90766;-51
2022/08/27 11:40:48;;;;;;;62.97;51.08;;;25.30;52.50;;;;;;4915436;28;90634;-53
2022/08/27 11:43:17;;;;;;;62.70;51.13;;;25.30;52.50;;;;;;4918072;28;92211;-55
2022/08/27 11:46:02;;;;;;;62.58;51.25;;;25.30;52.50;;;;;;4912764;28;89695;-55
2022/08/27 11:48:34;;;;;;;63.10;51.38;;;25.30;52.40;;;;;;4920583;28;90146;-51
2022/08/27 11:51:01;;;;;;;62.22;51.17;;;25.30;52.30;;;;;;4922075;28;90505;-54
2022/08/27 11:53:39;;;;;;;63.65;51.42;;;25.30;52.30;;;;;;4923713;28;92114;-53
2022/08/27 11:56:35;;;;;;;65.30;51.42;;;25.30;52.30;;;;;;4915922;28;91559;-54
2022/08/27 11:59:22;;;;;;;62.83;50.95;;;25.30;52.20;;;;;;4916140;28;92110;-54
2022/08/27 12:01:51;;;;;;;63.72;51.38;;;25.40;52.30;;;;;;4922458;28;92606;-49
2022/08/27 12:04:25;;;;;;;63.30;51.40;;;25.40;52.30;;;;;;4920830;28;90812;-54
2022/08/27 12:07:00;;;;;;;62.78;51.25;;;25.40;52.20;;;;;;4909860;28;91359;-53
2022/08/27 12:09:27;;;;;;;62.55;51.22;;;25.40;51.90;;;;;;4917548;28;91251;-53
2022/08/27 12:12:07;;;;;;;63.25;51.38;;;25.40;52.30;;;;;;4913844;28;94573;-52
2022/08/27 12:14:52;;;;;;;63.13;51.20;;;25.40;52.50;;;;;;4919301;28;91398;-52
2022/08/27 12:17:35;;;;;;;62.80;51.55;;;25.50;52.60;;;;;;4924640;28;90053;-52
2022/08/27 12:20:22;;;;;;;63.22;51.53;;;25.60;52.80;;;;;;4923578;28;92902;-55
2022/08/27 12:25:59;;;;;;;64.05;51.47;;;25.50;52.70;;;;;;4922672;28;96750;-55
2022/08/27 12:28:25;;;;;;;64.90;51.35;;;25.50;52.70;;;;;;4924936;28;90896;-52
2022/08/27 12:30:51;;;;;;;62.28;50.97;;;25.50;52.60;;;;;;4914870;28;90512;-51
2022/08/27 12:33:17;;;;;;;62.80;51.40;;;25.50;52.70;;;;;;4919458;28;90276;-52
2022/08/27 12:35:50;;;;;;;62.33;51.15;;;25.50;52.50;;;;;;4928110;28;91644;-54
2022/08/27 12:38:20;;;;;;;62.85;51.10;;;25.60;52.30;;;;;;4915623;28;89693;-52
2022/08/27 12:40:56;;;;;;;62.65;51.15;;;25.50;52.10;;;;;;4919436;28;93731;-53
2022/08/27 12:43:24;;;;;;;63.42;51.60;;;25.50;52.00;;;;;;4919065;28;93223;-51
2022/08/27 12:46:05;;;;;;;63.45;51.33;;;25.50;51.90;;;;;;4920579;28;94753;-54
2022/08/27 12:49:00;;;;;;;63.53;51.65;;;25.50;51.80;;;;;;4923592;28;92668;-50
2022/08/27 12:51:32;;;;;;;62.55;51.03;;;25.50;51.70;;;;;;4920918;28;91301;-52
2022/08/27 12:54:25;;;;;;;63.22;51.35;;;25.50;51.60;;;;;;4926708;28;89721;-54
2022/08/27 12:57:17;;;;;;;64.65;51.60;;;25.50;51.60;;;;;;4919884;28;90466;-50